sensor_id;sensor_type;location;lat;lon;timestamp;pressure;altitude;pressure_sealevel;temperature;humidity
43115;BME280;28727;50.068;14.452;2023-07-13T00:01:37;98827.94;;;24.00;51.33
43115;BME280;28727;50.068;14.452;2023-07-13T00:04:10;98833.06;;;23.97;51.22
43115;BME280;28727;50.068;14.452;2023-07-13T00:06:42;98824.16;;;23.96;51.02
43115;BME280;28727;50.068;14.452;2023-07-13T00:09:17;98827.94;;;23.95;51.29
43115;BME280;28727;50.068;14.452;2023-07-13T00:11:55;98827.13;;;23.95;51.07
43115;BME280;28727;50.068;14.452;2023-07-13T00:14:28;98842.22;;;23.91;51.60
43115;BME280;28727;50.068;14.452;2023-07-13T00:17:00;98841.13;;;23.87;51.83
43115;BME280;28727;50.068;14.452;2023-07-13T00:19:32;98843.31;;;23.85;51.45
43115;BME280;28727;50.068;14.452;2023-07-13T00:22:07;98839.50;;;23.81;51.60
43115;BME280;28727;50.068;14.452;2023-07-13T00:24:39;98841.13;;;23.87;51.79
43115;BME280;28727;50.068;14.452;2023-07-13T00:27:13;98842.50;;;23.89;52.13
43115;BME280;28727;50.068;14.452;2023-07-13T00:29:45;98843.31;;;23.90;52.34
43115;BME280;28727;50.068;14.452;2023-07-13T00:32:17;98832.78;;;23.93;52.66
43115;BME280;28727;50.068;14.452;2023-07-13T00:34:49;98826.03;;;23.96;52.67
43115;BME280;28727;50.068;14.452;2023-07-13T00:37:22;98821.47;;;23.91;53.35
43115;BME280;28727;50.068;14.452;2023-07-13T00:39:55;98813.88;;;23.93;53.56
43115;BME280;28727;50.068;14.452;2023-07-13T00:42:27;98807.16;;;23.96;53.46
43115;BME280;28727;50.068;14.452;2023-07-13T00:47:43;98798.50;;;23.99;53.75
43115;BME280;28727;50.068;14.452;2023-07-13T00:50:16;98797.69;;;24.03;53.95
43115;BME280;28727;50.068;14.452;2023-07-13T00:52:51;98785.56;;;24.06;54.20
43115;BME280;28727;50.068;14.452;2023-07-13T00:55:25;98789.34;;;24.05;54.10
43115;BME280;28727;50.068;14.452;2023-07-13T00:58:01;98789.06;;;24.06;54.47
43115;BME280;28727;50.068;14.452;2023-07-13T01:00:37;98793.13;;;24.09;54.45
43115;BME280;28727;50.068;14.452;2023-07-13T01:03:09;98789.88;;;24.12;54.67
43115;BME280;28727;50.068;14.452;2023-07-13T01:05:41;98796.66;;;24.15;54.91
43115;BME280;28727;50.068;14.452;2023-07-13T01:08:14;98800.94;;;24.16;54.80
43115;BME280;28727;50.068;14.452;2023-07-13T01:10:55;98796.09;;;24.18;55.08
43115;BME280;28727;50.068;14.452;2023-07-13T01:13:28;98794.47;;;24.12;55.54
43115;BME280;28727;50.068;14.452;2023-07-13T01:16:05;98783.66;;;24.12;55.68
43115;BME280;28727;50.068;14.452;2023-07-13T01:18:44;98787.19;;;24.12;55.47
43115;BME280;28727;50.068;14.452;2023-07-13T01:21:15;98773.69;;;24.07;55.92
43115;BME280;28727;50.068;14.452;2023-07-13T01:23:48;98773.97;;;24.00;55.98
43115;BME280;28727;50.068;14.452;2023-07-13T01:26:20;98768.00;;;23.98;56.48
43115;BME280;28727;50.068;14.452;2023-07-13T01:28:52;98774.50;;;23.97;56.87
43115;BME280;28727;50.068;14.452;2023-07-13T01:31:24;98779.91;;;23.97;56.61
43115;BME280;28727;50.068;14.452;2023-07-13T01:33:56;98779.34;;;23.95;57.05
43115;BME280;28727;50.068;14.452;2023-07-13T01:36:29;98772.59;;;23.93;57.27
43115;BME280;28727;50.068;14.452;2023-07-13T01:39:00;98772.59;;;23.93;57.71
43115;BME280;28727;50.068;14.452;2023-07-13T01:41:32;98769.63;;;23.94;57.51
43115;BME280;28727;50.068;14.452;2023-07-13T01:44:04;98774.50;;;23.97;57.49
43115;BME280;28727;50.068;14.452;2023-07-13T01:46:36;98774.50;;;23.97;58.11
43115;BME280;28727;50.068;14.452;2023-07-13T01:49:08;98779.91;;;24.02;57.94
43115;BME280;28727;50.068;14.452;2023-07-13T01:51:40;98776.09;;;24.03;57.79
43115;BME280;28727;50.068;14.452;2023-07-13T01:54:11;98774.78;;;24.01;58.25
43115;BME280;28727;50.068;14.452;2023-07-13T01:56:44;98776.91;;;23.99;57.97
43115;BME280;28727;50.068;14.452;2023-07-13T01:59:16;98778.00;;;23.98;58.23
43115;BME280;28727;50.068;14.452;2023-07-13T02:01:48;98778.56;;;23.95;58.64
43115;BME280;28727;50.068;14.452;2023-07-13T02:04:20;98781.50;;;23.93;58.60
43115;BME280;28727;50.068;14.452;2023-07-13T02:06:52;98773.97;;;23.95;58.89
43115;BME280;28727;50.068;14.452;2023-07-13T02:09:23;98769.38;;;23.96;59.04
43115;BME280;28727;50.068;14.452;2023-07-13T02:11:56;98779.34;;;23.95;58.74
43115;BME280;28727;50.068;14.452;2023-07-13T02:14:28;98778.56;;;23.90;59.29
43115;BME280;28727;50.068;14.452;2023-07-13T02:16:59;98777.19;;;23.87;59.32
43115;BME280;28727;50.068;14.452;2023-07-13T02:19:35;98773.41;;;23.83;59.42
43115;BME280;28727;50.068;14.452;2023-07-13T02:22:07;98775.31;;;23.78;60.21
43115;BME280;28727;50.068;14.452;2023-07-13T02:24:39;98778.25;;;23.76;60.37
43115;BME280;28727;50.068;14.452;2023-07-13T02:27:11;98784.47;;;23.77;60.04
43115;BME280;28727;50.068;14.452;2023-07-13T02:29:45;98797.94;;;23.77;59.90
43115;BME280;28727;50.068;14.452;2023-07-13T02:32:17;98803.88;;;23.68;60.40
43115;BME280;28727;50.068;14.452;2023-07-13T02:34:49;98789.84;;;23.66;60.51
43115;BME280;28727;50.068;14.452;2023-07-13T02:37:21;98799.53;;;23.62;60.36
43115;BME280;28727;50.068;14.452;2023-07-13T02:39:53;98806.03;;;23.61;60.24
43115;BME280;28727;50.068;14.452;2023-07-13T02:42:27;98808.44;;;23.63;60.78
43115;BME280;28727;50.068;14.452;2023-07-13T02:44:59;98811.16;;;23.68;60.37
43115;BME280;28727;50.068;14.452;2023-07-13T02:47:32;98816.56;;;23.73;60.36
43115;BME280;28727;50.068;14.452;2023-07-13T02:50:04;98817.66;;;23.72;60.06
43115;BME280;28727;50.068;14.452;2023-07-13T02:52:36;98814.94;;;23.62;60.32
43115;BME280;28727;50.068;14.452;2023-07-13T02:55:08;98819.78;;;23.55;60.59
43115;BME280;28727;50.068;14.452;2023-07-13T02:57:41;98829.41;;;23.46;61.12
43115;BME280;28727;50.068;14.452;2023-07-13T03:00:13;98826.19;;;23.44;61.41
43115;BME280;28727;50.068;14.452;2023-07-13T03:02:44;98832.63;;;23.43;61.07
43115;BME280;28727;50.068;14.452;2023-07-13T03:05:17;98831.81;;;23.32;61.77
43115;BME280;28727;50.068;14.452;2023-07-13T03:07:49;98828.28;;;23.26;62.12
43115;BME280;28727;50.068;14.452;2023-07-13T03:10:22;98827.16;;;23.22;62.17
43115;BME280;28727;50.068;14.452;2023-07-13T03:12:55;98835.78;;;23.19;62.27
43115;BME280;28727;50.068;14.452;2023-07-13T03:15:31;98839.53;;;23.13;62.39
43115;BME280;28727;50.068;14.452;2023-07-13T03:18:03;98836.53;;;23.10;62.87
43115;BME280;28727;50.068;14.452;2023-07-13T03:20:34;98835.44;;;23.06;63.15
43115;BME280;28727;50.068;14.452;2023-07-13T03:23:06;98842.16;;;23.03;63.41
43115;BME280;28727;50.068;14.452;2023-07-13T03:25:38;98851.06;;;23.04;63.34
43115;BME280;28727;50.068;14.452;2023-07-13T03:28:11;98853.00;;;23.08;63.42
43115;BME280;28727;50.068;14.452;2023-07-13T03:30:44;98863.47;;;23.10;63.65
43115;BME280;28727;50.068;14.452;2023-07-13T03:33:17;98855.41;;;23.10;63.43
43115;BME280;28727;50.068;14.452;2023-07-13T03:35:48;98857.28;;;23.09;63.55
43115;BME280;28727;50.068;14.452;2023-07-13T03:38:21;98873.97;;;23.01;63.09
43115;BME280;28727;50.068;14.452;2023-07-13T03:40:53;98888.75;;;22.99;62.29
43115;BME280;28727;50.068;14.452;2023-07-13T03:43:25;98890.31;;;22.90;62.24
43115;BME280;28727;50.068;14.452;2023-07-13T03:45:57;98898.88;;;22.81;59.51
43115;BME280;28727;50.068;14.452;2023-07-13T03:48:29;98895.00;;;22.67;56.73
43115;BME280;28727;50.068;14.452;2023-07-13T03:51:01;98906.22;;;22.59;56.43
43115;BME280;28727;50.068;14.452;2023-07-13T03:53:38;98903.97;;;22.46;55.16
43115;BME280;28727;50.068;14.452;2023-07-13T03:56:10;98899.84;;;22.38;55.36
43115;BME280;28727;50.068;14.452;2023-07-13T03:58:44;98897.41;;;22.32;54.88
43115;BME280;28727;50.068;14.452;2023-07-13T04:01:22;98910.00;;;22.26;54.46
43115;BME280;28727;50.068;14.452;2023-07-13T04:03:54;98909.63;;;22.18;54.55
43115;BME280;28727;50.068;14.452;2023-07-13T04:06:30;98915.16;;;22.06;54.65
43115;BME280;28727;50.068;14.452;2023-07-13T04:09:03;98919.72;;;22.05;54.65
43115;BME280;28727;50.068;14.452;2023-07-13T04:11:37;98920.78;;;22.04;54.54
43115;BME280;28727;50.068;14.452;2023-07-13T04:14:10;98929.94;;;22.03;54.03
43115;BME280;28727;50.068;14.452;2023-07-13T04:16:42;98931.25;;;22.01;54.24
43115;BME280;28727;50.068;14.452;2023-07-13T04:19:15;98934.44;;;21.98;54.11
43115;BME280;28727;50.068;14.452;2023-07-13T04:21:47;98930.94;;;21.97;54.01
43115;BME280;28727;50.068;14.452;2023-07-13T04:24:19;98938.47;;;21.95;54.01
43115;BME280;28727;50.068;14.452;2023-07-13T04:26:51;98935.13;;;21.88;53.92
43115;BME280;28727;50.068;14.452;2023-07-13T04:29:24;98941.88;;;21.91;53.71
43115;BME280;28727;50.068;14.452;2023-07-13T04:31:55;98943.59;;;21.97;53.24
43115;BME280;28727;50.068;14.452;2023-07-13T04:34:27;98943.84;;;21.95;53.15
43115;BME280;28727;50.068;14.452;2023-07-13T04:36:59;98934.06;;;21.89;53.15
43115;BME280;28727;50.068;14.452;2023-07-13T04:39:34;98931.63;;;21.88;53.23
43115;BME280;28727;50.068;14.452;2023-07-13T04:42:06;98938.69;;;21.94;53.16
43115;BME280;28727;50.068;14.452;2023-07-13T04:44:38;98944.31;;;21.92;53.16
43115;BME280;28727;50.068;14.452;2023-07-13T04:47:10;98951.84;;;21.90;53.37
43115;BME280;28727;50.068;14.452;2023-07-13T04:49:42;98940.91;;;21.97;52.92
43115;BME280;28727;50.068;14.452;2023-07-13T04:52:14;98951.91;;;21.95;52.72
43115;BME280;28727;50.068;14.452;2023-07-13T04:54:48;98956.41;;;21.90;53.00
43115;BME280;28727;50.068;14.452;2023-07-13T04:57:20;98954.25;;;21.92;52.78
43115;BME280;28727;50.068;14.452;2023-07-13T04:59:55;98960.72;;;21.91;52.93
43115;BME280;28727;50.068;14.452;2023-07-13T05:02:27;98963.84;;;21.83;52.72
43115;BME280;28727;50.068;14.452;2023-07-13T05:05:01;98967.81;;;21.80;53.08
43115;BME280;28727;50.068;14.452;2023-07-13T05:07:33;98964.16;;;21.64;53.15
43115;BME280;28727;50.068;14.452;2023-07-13T05:10:05;98957.97;;;21.64;53.06
43115;BME280;28727;50.068;14.452;2023-07-13T05:12:37;98959.00;;;21.63;53.39
43115;BME280;28727;50.068;14.452;2023-07-13T05:15:12;98965.38;;;21.57;53.62
43115;BME280;28727;50.068;14.452;2023-07-13T05:17:43;98963.75;;;21.56;53.69
43115;BME280;28727;50.068;14.452;2023-07-13T05:20:17;98970.53;;;21.58;53.83
43115;BME280;28727;50.068;14.452;2023-07-13T05:22:49;98971.09;;;21.60;53.67
43115;BME280;28727;50.068;14.452;2023-07-13T05:25:22;98974.44;;;21.51;53.63
43115;BME280;28727;50.068;14.452;2023-07-13T05:27:57;98981.00;;;21.38;54.06
43115;BME280;28727;50.068;14.452;2023-07-13T05:30:30;98974.72;;;21.33;54.39
43115;BME280;28727;50.068;14.452;2023-07-13T05:33:02;98977.41;;;21.33;54.54
43115;BME280;28727;50.068;14.452;2023-07-13T05:35:33;98981.66;;;21.29;54.82
43115;BME280;28727;50.068;14.452;2023-07-13T05:38:05;98979.97;;;21.22;55.25
43115;BME280;28727;50.068;14.452;2023-07-13T05:40:38;98984.34;;;21.29;55.58
43115;BME280;28727;50.068;14.452;2023-07-13T05:43:10;98995.66;;;21.47;55.09
43115;BME280;28727;50.068;14.452;2023-07-13T05:45:41;98995.53;;;21.59;54.97
43115;BME280;28727;50.068;14.452;2023-07-13T05:48:13;98997.59;;;21.52;55.12
43115;BME280;28727;50.068;14.452;2023-07-13T05:50:45;98990.50;;;21.46;55.00
43115;BME280;28727;50.068;14.452;2023-07-13T05:53:17;99005.00;;;21.45;55.28
43115;BME280;28727;50.068;14.452;2023-07-13T05:55:49;99005.41;;;21.53;55.28
43115;BME280;28727;50.068;14.452;2023-07-13T05:58:24;99007.91;;;21.82;56.05
43115;BME280;28727;50.068;14.452;2023-07-13T06:01:03;99007.47;;;22.33;56.18
43115;BME280;28727;50.068;14.452;2023-07-13T06:03:36;99002.97;;;22.66;55.51
43115;BME280;28727;50.068;14.452;2023-07-13T06:06:10;99001.59;;;22.90;54.20
43115;BME280;28727;50.068;14.452;2023-07-13T06:08:42;98998.50;;;23.08;53.94
43115;BME280;28727;50.068;14.452;2023-07-13T06:11:22;99004.59;;;23.36;52.88
43115;BME280;28727;50.068;14.452;2023-07-13T06:13:54;99005.56;;;23.56;51.86
43115;BME280;28727;50.068;14.452;2023-07-13T06:16:28;99001.91;;;23.78;51.75
43115;BME280;28727;50.068;14.452;2023-07-13T06:19:00;99010.06;;;23.98;50.93
43115;BME280;28727;50.068;14.452;2023-07-13T06:21:32;99013.16;;;24.22;50.38
43115;BME280;28727;50.068;14.452;2023-07-13T06:24:04;99016.97;;;24.41;49.44
43115;BME280;28727;50.068;14.452;2023-07-13T06:26:40;99023.69;;;24.28;49.85
43115;BME280;28727;50.068;14.452;2023-07-13T06:29:12;99020.50;;;24.41;49.57
43115;BME280;28727;50.068;14.452;2023-07-13T06:31:44;99020.56;;;24.77;49.53
43115;BME280;28727;50.068;14.452;2023-07-13T06:34:16;99016.00;;;25.03;48.55
43115;BME280;28727;50.068;14.452;2023-07-13T06:36:48;99007.88;;;25.18;47.66
43115;BME280;28727;50.068;14.452;2023-07-13T06:39:20;99003.00;;;25.05;47.57
43115;BME280;28727;50.068;14.452;2023-07-13T06:41:52;99012.44;;;24.87;48.55
43115;BME280;28727;50.068;14.452;2023-07-13T06:44:25;99011.69;;;25.07;47.92
43115;BME280;28727;50.068;14.452;2023-07-13T06:46:57;99022.75;;;25.31;47.02
43115;BME280;28727;50.068;14.452;2023-07-13T06:49:29;99026.22;;;25.41;47.20
43115;BME280;28727;50.068;14.452;2023-07-13T06:52:00;99029.19;;;25.65;46.83
43115;BME280;28727;50.068;14.452;2023-07-13T06:54:32;99020.97;;;25.95;46.03
43115;BME280;28727;50.068;14.452;2023-07-13T06:57:04;99030.63;;;26.27;45.54
43115;BME280;28727;50.068;14.452;2023-07-13T06:59:40;99044.03;;;26.47;45.30
43115;BME280;28727;50.068;14.452;2023-07-13T07:02:12;99036.13;;;26.56;44.59
43115;BME280;28727;50.068;14.452;2023-07-13T07:04:44;99031.59;;;26.85;44.50
43115;BME280;28727;50.068;14.452;2023-07-13T07:07:16;99027.66;;;27.06;44.32
43115;BME280;28727;50.068;14.452;2023-07-13T07:09:47;99032.19;;;27.45;43.83
43115;BME280;28727;50.068;14.452;2023-07-13T07:12:19;99029.63;;;27.82;42.62
43115;BME280;28727;50.068;14.452;2023-07-13T07:14:51;99029.16;;;27.99;41.42
43115;BME280;28727;50.068;14.452;2023-07-13T07:17:26;99036.56;;;27.93;41.67
43115;BME280;28727;50.068;14.452;2023-07-13T07:19:57;99042.66;;;28.04;40.42
43115;BME280;28727;50.068;14.452;2023-07-13T07:22:30;99040.50;;;27.82;41.56
43115;BME280;28727;50.068;14.452;2023-07-13T07:25:02;99052.03;;;27.93;41.39
43115;BME280;28727;50.068;14.452;2023-07-13T07:27:34;99057.13;;;27.99;41.34
43115;BME280;28727;50.068;14.452;2023-07-13T07:30:09;99052.50;;;28.00;40.96
43115;BME280;28727;50.068;14.452;2023-07-13T07:32:43;99052.38;;;28.10;40.76
43115;BME280;28727;50.068;14.452;2023-07-13T07:35:18;99052.16;;;28.30;40.73
43115;BME280;28727;50.068;14.452;2023-07-13T07:37:50;99054.09;;;28.48;40.07
43115;BME280;28727;50.068;14.452;2023-07-13T07:40:22;99058.00;;;28.61;39.88
43115;BME280;28727;50.068;14.452;2023-07-13T07:42:57;99052.94;;;28.92;38.59
43115;BME280;28727;50.068;14.452;2023-07-13T07:45:29;99055.13;;;29.41;38.69
43115;BME280;28727;50.068;14.452;2023-07-13T07:48:01;99061.31;;;29.60;37.79
43115;BME280;28727;50.068;14.452;2023-07-13T07:50:33;99054.47;;;29.77;37.45
43115;BME280;28727;50.068;14.452;2023-07-13T07:53:06;99052.94;;;29.24;37.14
43115;BME280;28727;50.068;14.452;2023-07-13T07:55:42;99065.28;;;28.84;38.20
43115;BME280;28727;50.068;14.452;2023-07-13T07:58:19;99064.56;;;28.36;38.96
43115;BME280;28727;50.068;14.452;2023-07-13T08:01:02;99068.72;;;27.86;39.01
43115;BME280;28727;50.068;14.452;2023-07-13T08:03:36;99072.59;;;27.46;38.94
43115;BME280;28727;50.068;14.452;2023-07-13T08:06:11;99074.03;;;27.39;39.43
43115;BME280;28727;50.068;14.452;2023-07-13T08:09:03;99076.75;;;27.39;39.93
43115;BME280;28727;50.068;14.452;2023-07-13T08:11:36;99076.94;;;27.47;39.69
43115;BME280;28727;50.068;14.452;2023-07-13T08:14:10;99083.00;;;27.68;39.06
43115;BME280;28727;50.068;14.452;2023-07-13T08:16:43;99083.94;;;27.82;38.83
43115;BME280;28727;50.068;14.452;2023-07-13T08:19:15;99081.88;;;27.74;38.26
43115;BME280;28727;50.068;14.452;2023-07-13T08:21:49;99084.75;;;27.83;38.52
43115;BME280;28727;50.068;14.452;2023-07-13T08:24:23;99094.34;;;27.99;36.91
43115;BME280;28727;50.068;14.452;2023-07-13T08:26:58;99083.88;;;28.11;36.66
43115;BME280;28727;50.068;14.452;2023-07-13T08:29:30;99090.47;;;27.81;36.67
43115;BME280;28727;50.068;14.452;2023-07-13T08:32:09;99092.34;;;27.81;37.31
43115;BME280;28727;50.068;14.452;2023-07-13T08:34:42;99092.38;;;28.28;38.05
43115;BME280;28727;50.068;14.452;2023-07-13T08:37:14;99083.16;;;28.90;37.49
43115;BME280;28727;50.068;14.452;2023-07-13T08:39:46;99074.72;;;29.24;34.01
43115;BME280;28727;50.068;14.452;2023-07-13T08:42:33;99076.41;;;29.53;33.65
43115;BME280;28727;50.068;14.452;2023-07-13T08:47:54;99076.44;;;29.66;32.97
43115;BME280;28727;50.068;14.452;2023-07-13T08:50:32;99079.19;;;29.66;32.35
43115;BME280;28727;50.068;14.452;2023-07-13T08:53:32;99073.47;;;29.36;33.20
43115;BME280;28727;50.068;14.452;2023-07-13T08:56:25;99091.78;;;28.55;34.71
43115;BME280;28727;50.068;14.452;2023-07-13T08:59:01;99078.47;;;28.54;34.42
43115;BME280;28727;50.068;14.452;2023-07-13T09:04:21;99087.03;;;29.03;32.50
43115;BME280;28727;50.068;14.452;2023-07-13T09:15:45;99096.03;;;28.42;32.79
43115;BME280;28727;50.068;14.452;2023-07-13T09:18:35;99104.47;;;28.41;33.46
43115;BME280;28727;50.068;14.452;2023-07-13T09:21:16;99103.91;;;28.44;34.35
43115;BME280;28727;50.068;14.452;2023-07-13T09:23:53;99106.38;;;28.40;33.36
43115;BME280;28727;50.068;14.452;2023-07-13T09:26:29;99117.69;;;28.47;33.22
43115;BME280;28727;50.068;14.452;2023-07-13T09:29:12;99111.31;;;28.57;32.91
43115;BME280;28727;50.068;14.452;2023-07-13T09:31:50;99111.94;;;28.73;31.86
43115;BME280;28727;50.068;14.452;2023-07-13T09:34:25;99111.16;;;28.91;33.01
43115;BME280;28727;50.068;14.452;2023-07-13T09:37:00;99108.38;;;29.28;31.43
43115;BME280;28727;50.068;14.452;2023-07-13T09:39:36;99112.44;;;29.50;31.56
43115;BME280;28727;50.068;14.452;2023-07-13T09:42:19;99110.38;;;29.42;30.28
43115;BME280;28727;50.068;14.452;2023-07-13T09:44:59;99108.41;;;29.61;30.46
43115;BME280;28727;50.068;14.452;2023-07-13T09:47:39;99110.75;;;29.81;29.10
43115;BME280;28727;50.068;14.452;2023-07-13T09:50:15;99116.97;;;30.00;29.59
43115;BME280;28727;50.068;14.452;2023-07-13T09:52:50;99128.88;;;30.32;29.39
43115;BME280;28727;50.068;14.452;2023-07-13T09:55:36;99125.66;;;30.43;27.91
43115;BME280;28727;50.068;14.452;2023-07-13T10:00:59;99129.75;;;30.82;27.15
43115;BME280;28727;50.068;14.452;2023-07-13T10:03:34;99126.66;;;30.75;27.46
43115;BME280;28727;50.068;14.452;2023-07-13T10:06:16;99127.59;;;30.57;27.13
43115;BME280;28727;50.068;14.452;2023-07-13T10:08:52;99124.53;;;30.58;27.22
43115;BME280;28727;50.068;14.452;2023-07-13T10:11:29;99116.47;;;30.67;27.15
43115;BME280;28727;50.068;14.452;2023-07-13T10:14:09;99112.63;;;30.68;27.59
43115;BME280;28727;50.068;14.452;2023-07-13T10:16:43;99111.22;;;30.57;27.82
43115;BME280;28727;50.068;14.452;2023-07-13T10:21:59;99110.91;;;30.94;26.53
43115;BME280;28727;50.068;14.452;2023-07-13T10:24:35;99119.16;;;31.39;27.72
43115;BME280;28727;50.068;14.452;2023-07-13T10:27:15;99113.41;;;31.62;25.26
43115;BME280;28727;50.068;14.452;2023-07-13T10:30:00;99109.22;;;31.43;26.72
43115;BME280;28727;50.068;14.452;2023-07-13T10:32:33;99101.09;;;31.07;26.01
43115;BME280;28727;50.068;14.452;2023-07-13T10:35:05;99105.16;;;31.09;25.73
43115;BME280;28727;50.068;14.452;2023-07-13T10:38:03;99104.47;;;31.26;25.14
43115;BME280;28727;50.068;14.452;2023-07-13T10:40:40;99090.75;;;31.40;25.48
43115;BME280;28727;50.068;14.452;2023-07-13T10:43:19;99090.25;;;31.60;25.86
43115;BME280;28727;50.068;14.452;2023-07-13T10:45:53;99093.59;;;31.57;25.17
43115;BME280;28727;50.068;14.452;2023-07-13T10:48:26;99087.94;;;30.73;25.37
43115;BME280;28727;50.068;14.452;2023-07-13T10:51:00;99083.97;;;30.92;25.88
43115;BME280;28727;50.068;14.452;2023-07-13T10:53:37;99099.81;;;31.26;25.96
43115;BME280;28727;50.068;14.452;2023-07-13T10:56:30;99089.31;;;31.20;26.35
43115;BME280;28727;50.068;14.452;2023-07-13T10:59:39;99102.41;;;31.31;26.34
43115;BME280;28727;50.068;14.452;2023-07-13T11:02:23;99090.75;;;31.40;26.04
43115;BME280;28727;50.068;14.452;2023-07-13T11:04:56;99094.31;;;31.49;26.10
43115;BME280;28727;50.068;14.452;2023-07-13T11:07:52;99091.22;;;31.64;25.77
43115;BME280;28727;50.068;14.452;2023-07-13T11:10:53;99087.13;;;31.53;25.99
43115;BME280;28727;50.068;14.452;2023-07-13T11:13:55;99078.22;;;31.39;24.93
43115;BME280;28727;50.068;14.452;2023-07-13T11:16:35;99084.47;;;31.17;24.96
43115;BME280;28727;50.068;14.452;2023-07-13T11:19:25;99078.03;;;30.99;24.91
43115;BME280;28727;50.068;14.452;2023-07-13T11:25:00;99070.56;;;31.05;26.66
43115;BME280;28727;50.068;14.452;2023-07-13T11:33:18;99060.09;;;31.20;26.00
43115;BME280;28727;50.068;14.452;2023-07-13T11:36:12;99064.22;;;31.40;25.58
43115;BME280;28727;50.068;14.452;2023-07-13T11:39:11;99058.94;;;30.99;25.04
43115;BME280;28727;50.068;14.452;2023-07-13T11:44:22;99060.69;;;30.73;24.72
43115;BME280;28727;50.068;14.452;2023-07-13T11:46:59;99063.94;;;30.61;25.28
43115;BME280;28727;50.068;14.452;2023-07-13T11:49:42;99052.06;;;30.30;25.86
43115;BME280;28727;50.068;14.452;2023-07-13T11:52:17;99053.31;;;30.10;26.37
43115;BME280;28727;50.068;14.452;2023-07-13T11:54:52;99057.66;;;29.97;26.68
43115;BME280;28727;50.068;14.452;2023-07-13T11:57:37;99060.78;;;29.58;27.40
43115;BME280;28727;50.068;14.452;2023-07-13T12:00:15;99065.81;;;29.51;27.14
43115;BME280;28727;50.068;14.452;2023-07-13T12:02:57;99061.00;;;29.48;27.14
43115;BME280;28727;50.068;14.452;2023-07-13T12:05:31;99062.69;;;29.44;27.69
43115;BME280;28727;50.068;14.452;2023-07-13T12:08:10;99067.44;;;29.39;26.88
43115;BME280;28727;50.068;14.452;2023-07-13T12:11:05;99066.63;;;29.38;26.76
43115;BME280;28727;50.068;14.452;2023-07-13T12:13:37;99063.56;;;29.40;27.95
43115;BME280;28727;50.068;14.452;2023-07-13T12:16:25;99065.34;;;29.30;28.08
43115;BME280;28727;50.068;14.452;2023-07-13T12:19:00;99058.09;;;29.26;28.68
43115;BME280;28727;50.068;14.452;2023-07-13T12:21:37;99063.81;;;29.24;28.38
43115;BME280;28727;50.068;14.452;2023-07-13T12:24:20;99068.19;;;29.07;27.60
43115;BME280;28727;50.068;14.452;2023-07-13T12:26:59;99070.66;;;28.89;28.57
43115;BME280;28727;50.068;14.452;2023-07-13T12:29:32;99072.47;;;28.94;29.25
43115;BME280;28727;50.068;14.452;2023-07-13T12:32:17;99064.81;;;29.15;27.95
43115;BME280;28727;50.068;14.452;2023-07-13T12:35:12;99064.81;;;29.15;27.56
43115;BME280;28727;50.068;14.452;2023-07-13T12:37:46;99060.78;;;29.45;27.69
43115;BME280;28727;50.068;14.452;2023-07-13T12:40:20;99054.75;;;29.61;26.77
43115;BME280;28727;50.068;14.452;2023-07-13T12:42:56;99056.97;;;29.59;27.25
43115;BME280;28727;50.068;14.452;2023-07-13T12:45:27;99053.16;;;29.60;27.27
43115;BME280;28727;50.068;14.452;2023-07-13T12:48:06;99043.56;;;29.77;27.45
43115;BME280;28727;50.068;14.452;2023-07-13T12:50:47;99050.25;;;29.84;27.08
43115;BME280;28727;50.068;14.452;2023-07-13T12:53:22;99051.44;;;29.64;26.94
43115;BME280;28727;50.068;14.452;2023-07-13T12:55:57;99052.31;;;29.46;26.67
43115;BME280;28727;50.068;14.452;2023-07-13T12:58:39;99054.56;;;29.25;26.63
43115;BME280;28727;50.068;14.452;2023-07-13T13:01:17;99047.41;;;28.97;26.75
43115;BME280;28727;50.068;14.452;2023-07-13T13:03:51;99042.94;;;28.87;27.28
43115;BME280;28727;50.068;14.452;2023-07-13T13:06:29;99033.28;;;28.95;27.94
43115;BME280;28727;50.068;14.452;2023-07-13T13:09:00;99039.63;;;29.23;28.21
43115;BME280;28727;50.068;14.452;2023-07-13T13:11:35;99039.94;;;29.54;27.80
43115;BME280;28727;50.068;14.452;2023-07-13T13:14:07;99039.06;;;29.86;27.45
43115;BME280;28727;50.068;14.452;2023-07-13T13:16:50;99034.72;;;30.12;26.92
43115;BME280;28727;50.068;14.452;2023-07-13T13:19:27;99034.28;;;30.32;26.98
43115;BME280;28727;50.068;14.452;2023-07-13T13:21:59;99024.88;;;30.38;25.64
43115;BME280;28727;50.068;14.452;2023-07-13T13:24:31;99027.94;;;30.23;27.31
43115;BME280;28727;50.068;14.452;2023-07-13T13:27:03;99025.91;;;30.29;26.58
43115;BME280;28727;50.068;14.452;2023-07-13T13:29:38;99017.59;;;30.47;26.94
43115;BME280;28727;50.068;14.452;2023-07-13T13:32:16;99013.66;;;30.40;26.23
43115;BME280;28727;50.068;14.452;2023-07-13T13:34:52;99016.22;;;30.23;26.15
43115;BME280;28727;50.068;14.452;2023-07-13T13:37:27;99018.53;;;30.29;27.31
43115;BME280;28727;50.068;14.452;2023-07-13T13:39:59;99013.91;;;30.30;26.59
43115;BME280;28727;50.068;14.452;2023-07-13T13:42:40;99009.72;;;30.10;27.39
43115;BME280;28727;50.068;14.452;2023-07-13T13:45:12;99023.63;;;29.95;28.21
43115;BME280;28727;50.068;14.452;2023-07-13T13:47:44;99014.22;;;29.87;28.12
43115;BME280;28727;50.068;14.452;2023-07-13T13:50:21;99022.09;;;29.61;28.38
43115;BME280;28727;50.068;14.452;2023-07-13T13:52:57;99028.28;;;29.35;28.61
43115;BME280;28727;50.068;14.452;2023-07-13T13:55:28;99029.25;;;29.25;29.13
43115;BME280;28727;50.068;14.452;2023-07-13T13:58:00;99021.91;;;29.25;29.09
43115;BME280;28727;50.068;14.452;2023-07-13T14:00:32;99023.78;;;29.44;29.42
43115;BME280;28727;50.068;14.452;2023-07-13T14:03:04;99025.50;;;29.53;29.10
43115;BME280;28727;50.068;14.452;2023-07-13T14:05:38;99021.47;;;29.51;28.89